createdAt,value
2023-03-07T00:01:03.167Z,16.17
2023-03-07T00:03:30.041Z,16.90
2023-03-07T00:06:10.434Z,17.98
2023-03-07T00:08:37.808Z,17.20
2023-03-07T00:11:06.889Z,17.50
2023-03-07T00:13:35.463Z,16.35
2023-03-07T00:16:07.775Z,18.00
2023-03-07T00:18:35.307Z,17.08
2023-03-07T00:21:07.940Z,18.10
2023-03-07T00:23:36.757Z,18.38
2023-03-07T00:26:09.059Z,17.92
2023-03-07T00:28:35.723Z,18.63
2023-03-07T00:31:04.546Z,18.60
2023-03-07T00:33:31.920Z,17.00
2023-03-07T00:36:02.217Z,17.55
2023-03-07T00:38:30.497Z,17.20
2023-03-07T00:40:58.699Z,16.35
2023-03-07T00:43:25.610Z,19.48
2023-03-07T00:45:52.619Z,17.00
2023-03-07T00:48:20.778Z,17.70
2023-03-07T00:50:49.433Z,17.45
2023-03-07T00:53:16.665Z,17.45
2023-03-07T00:55:43.412Z,18.00
2023-03-07T00:58:10.077Z,18.38
2023-03-07T01:00:36.823Z,16.08
2023-03-07T01:03:04.281Z,16.77
2023-03-07T01:05:31.094Z,17.48
2023-03-07T01:07:57.830Z,17.65
2023-03-07T01:10:25.899Z,18.50
2023-03-07T01:12:52.594Z,17.88
2023-03-07T01:15:19.300Z,17.92
2023-03-07T01:17:46.026Z,17.27
2023-03-07T01:20:12.959Z,17.67
2023-03-07T01:22:39.688Z,16.73
2023-03-07T01:25:06.618Z,17.23
2023-03-07T01:27:33.390Z,17.77
2023-03-07T01:30:00.191Z,17.45
2023-03-07T01:32:27.119Z,16.77
2023-03-07T01:34:53.921Z,16.95
2023-03-07T01:37:20.556Z,18.40
2023-03-07T01:39:50.347Z,17.83
2023-03-07T01:42:17.102Z,18.40
2023-03-07T01:45:07.180Z,18.52
2023-03-07T01:47:34.780Z,19.42
2023-03-07T01:50:05.777Z,21.00
2023-03-07T01:52:32.401Z,19.88
2023-03-07T01:55:05.022Z,21.15
2023-03-07T01:57:35.311Z,20.85
2023-03-07T02:00:08.586Z,19.35
2023-03-07T02:02:37.811Z,18.40
2023-03-07T02:05:09.487Z,19.17
2023-03-07T02:07:42.187Z,19.50
2023-03-07T02:10:11.573Z,20.10
2023-03-07T02:15:05.537Z,20.05
2023-03-07T02:17:32.373Z,19.77
2023-03-07T02:20:02.050Z,19.52
2023-03-07T02:22:29.754Z,19.77
2023-03-07T02:25:02.676Z,18.77
2023-03-07T02:27:32.871Z,18.65
2023-03-07T02:29:59.621Z,19.30
2023-03-07T02:32:26.395Z,18.77
2023-03-07T02:34:53.080Z,18.50
2023-03-07T02:37:25.541Z,18.13
2023-03-07T02:39:55.091Z,17.77
2023-03-07T02:42:25.731Z,18.85
2023-03-07T02:44:58.041Z,17.35
2023-03-07T02:47:24.971Z,16.60
2023-03-07T02:49:51.784Z,16.95
2023-03-07T02:52:18.743Z,17.13
2023-03-07T02:54:45.405Z,17.95
2023-03-07T02:57:12.023Z,17.88
2023-03-07T02:59:38.666Z,17.55
2023-03-07T03:02:05.422Z,17.65
2023-03-07T03:04:32.120Z,16.42
2023-03-07T03:06:58.838Z,15.85
2023-03-07T03:09:26.020Z,16.45
2023-03-07T03:11:52.698Z,15.88
2023-03-07T03:14:19.358Z,16.80
2023-03-07T03:16:46.034Z,14.95
2023-03-07T03:19:12.884Z,16.90
2023-03-07T03:21:39.481Z,14.30
2023-03-07T03:24:07.291Z,15.38
2023-03-07T03:26:34.984Z,14.40
2023-03-07T03:29:02.028Z,15.15
2023-03-07T03:31:31.438Z,15.20
2023-03-07T03:36:26.711Z,13.48
2023-03-07T03:38:54.992Z,14.35
2023-03-07T03:41:22.573Z,14.18
2023-03-07T03:43:49.347Z,15.63
2023-03-07T03:46:17.711Z,15.20
2023-03-07T03:48:44.596Z,13.73
2023-03-07T03:51:16.441Z,15.13
2023-03-07T03:53:43.298Z,15.65
2023-03-07T03:56:21.572Z,15.68
2023-03-07T03:58:51.574Z,14.43
2023-03-07T04:01:19.918Z,13.02
2023-03-07T04:03:48.888Z,13.95
2023-03-07T04:06:22.071Z,13.85
2023-03-07T04:08:48.753Z,13.95
2023-03-07T04:11:15.379Z,13.95
2023-03-07T04:13:42.139Z,13.90
2023-03-07T04:16:09.345Z,13.25
2023-03-07T04:18:36.338Z,12.63
2023-03-07T04:21:05.162Z,13.13
2023-03-07T04:23:32.258Z,13.05
2023-03-07T04:26:01.454Z,14.35
2023-03-07T04:28:46.071Z,12.93
2023-03-07T04:31:14.764Z,14.40
2023-03-07T04:33:42.155Z,14.55
2023-03-07T04:36:09.258Z,14.63
2023-03-07T04:38:38.179Z,13.98
2023-03-07T04:41:06.457Z,13.38
2023-03-07T04:43:33.161Z,14.23
2023-03-07T04:45:59.806Z,14.32
2023-03-07T04:48:26.439Z,13.98
2023-03-07T04:50:53.058Z,13.73
2023-03-07T04:53:20.143Z,13.38
2023-03-07T04:55:46.890Z,14.63
2023-03-07T04:58:14.515Z,14.23
2023-03-07T05:00:42.703Z,12.55
2023-03-07T05:03:10.649Z,13.60
2023-03-07T05:05:37.775Z,13.77
2023-03-07T05:08:05.819Z,13.38
2023-03-07T05:10:33.354Z,12.63
2023-03-07T05:13:00.389Z,11.70
2023-03-07T05:15:27.287Z,11.75
2023-03-07T05:17:53.976Z,12.02
2023-03-07T05:20:20.835Z,12.70
2023-03-07T05:22:47.863Z,12.43
2023-03-07T05:25:14.825Z,11.30
2023-03-07T05:27:41.625Z,12.43
2023-03-07T05:30:09.309Z,12.15
2023-03-07T05:32:36.282Z,11.63
2023-03-07T05:35:03.152Z,11.88
2023-03-07T05:37:29.758Z,11.23
2023-03-07T05:39:56.415Z,11.80
2023-03-07T05:42:23.044Z,11.23
2023-03-07T05:44:52.961Z,11.60
2023-03-07T05:47:19.560Z,11.13
2023-03-07T05:49:46.352Z,11.07
2023-03-07T05:52:13.021Z,10.93
2023-03-07T05:54:39.732Z,10.15
2023-03-07T05:57:06.371Z,10.55
2023-03-07T05:59:33.000Z,9.88
2023-03-07T06:01:59.702Z,10.05
2023-03-07T06:04:26.365Z,9.95
2023-03-07T06:06:53.027Z,9.32
2023-03-07T06:09:19.717Z,11.43
2023-03-07T06:11:46.496Z,10.77
2023-03-07T06:14:13.339Z,9.93
2023-03-07T06:16:40.004Z,9.80
2023-03-07T06:19:06.595Z,9.82
2023-03-07T06:21:33.336Z,10.48
2023-03-07T06:23:59.979Z,9.65
2023-03-07T06:26:26.563Z,9.60
2023-03-07T06:28:53.571Z,10.27
2023-03-07T06:31:20.851Z,9.75
2023-03-07T06:33:48.224Z,9.23
2023-03-07T06:36:18.174Z,9.70
2023-03-07T06:38:45.350Z,9.55
2023-03-07T06:41:12.526Z,10.13
2023-03-07T06:43:39.420Z,10.77
2023-03-07T06:46:06.660Z,9.93
2023-03-07T06:48:34.943Z,9.65
2023-03-07T06:51:10.569Z,9.85
2023-03-07T06:53:37.364Z,8.38
2023-03-07T06:56:04.402Z,9.15
2023-03-07T06:58:31.046Z,9.25
2023-03-07T07:00:57.768Z,9.50
2023-03-07T07:03:24.805Z,9.45
2023-03-07T07:05:51.675Z,10.20
2023-03-07T07:08:18.316Z,9.65
2023-03-07T07:10:44.993Z,9.80
2023-03-07T07:13:12.681Z,9.75
2023-03-07T07:15:39.427Z,10.57
2023-03-07T07:18:06.147Z,10.45
2023-03-07T07:20:32.889Z,10.30
2023-03-07T07:22:59.624Z,11.63
2023-03-07T07:25:26.245Z,11.50
2023-03-07T07:27:52.891Z,10.63
2023-03-07T07:30:19.521Z,11.18
2023-03-07T07:32:46.351Z,12.15
2023-03-07T07:35:13.084Z,11.45
2023-03-07T07:37:40.406Z,12.82
2023-03-07T07:40:10.217Z,13.02
2023-03-07T07:42:36.872Z,14.10
2023-03-07T07:45:04.213Z,13.77
2023-03-07T07:47:30.863Z,13.65
2023-03-07T07:49:57.728Z,14.30
2023-03-07T07:52:24.393Z,13.02
2023-03-07T07:54:51.800Z,14.27
2023-03-07T07:57:18.474Z,14.18
2023-03-07T07:59:45.106Z,14.18
2023-03-07T08:02:13.902Z,14.38
2023-03-07T08:04:41.013Z,14.82
2023-03-07T08:07:08.045Z,14.20
2023-03-07T08:09:35.640Z,13.32
2023-03-07T08:12:02.325Z,13.32
2023-03-07T08:14:29.020Z,13.75
2023-03-07T08:16:55.722Z,13.93
2023-03-07T08:19:22.376Z,14.45
2023-03-07T08:21:49.013Z,13.00
2023-03-07T08:24:15.606Z,13.15
2023-03-07T08:26:42.197Z,14.88
2023-03-07T08:29:09.076Z,13.75
2023-03-07T08:31:35.765Z,14.57
2023-03-07T08:34:02.534Z,15.18
2023-03-07T08:36:29.120Z,15.02
2023-03-07T08:38:55.750Z,14.90
2023-03-07T08:41:23.382Z,15.43
2023-03-07T08:43:50.270Z,14.38
2023-03-07T08:46:17.011Z,15.82
2023-03-07T08:48:46.388Z,13.80
2023-03-07T08:51:16.036Z,14.30
2023-03-07T08:53:44.249Z,13.57
2023-03-07T08:56:13.321Z,14.95
2023-03-07T08:58:40.060Z,13.55
2023-03-07T09:01:08.565Z,13.68
2023-03-07T09:03:36.253Z,14.53
2023-03-07T09:06:04.338Z,15.02
2023-03-07T09:08:31.841Z,13.35
2023-03-07T09:11:05.700Z,13.57
2023-03-07T09:13:36.112Z,13.95
2023-03-07T09:16:08.146Z,12.93
2023-03-07T09:18:36.276Z,14.73
2023-03-07T09:21:04.562Z,14.00
2023-03-07T09:23:31.378Z,14.00
2023-03-07T09:26:02.315Z,14.10
2023-03-07T09:28:29.010Z,13.73
2023-03-07T09:30:55.892Z,14.65
2023-03-07T09:33:22.816Z,13.75
2023-03-07T09:35:51.013Z,14.02
2023-03-07T09:38:17.685Z,12.93
2023-03-07T09:40:47.644Z,13.15
2023-03-07T09:43:26.801Z,13.75
2023-03-07T09:46:13.595Z,13.25
2023-03-07T09:48:52.982Z,13.10
2023-03-07T09:54:02.631Z,13.38
2023-03-07T09:57:00.501Z,12.80
2023-03-07T09:59:41.851Z,11.40
2023-03-07T10:02:37.540Z,12.23
2023-03-07T10:05:32.226Z,12.07
2023-03-07T10:08:01.669Z,11.90
2023-03-07T10:13:24.744Z,11.82
2023-03-07T10:15:54.912Z,11.65
2023-03-07T10:18:47.601Z,12.20
2023-03-07T10:21:48.685Z,11.32
2023-03-07T10:24:30.744Z,11.43
2023-03-07T10:27:29.790Z,11.55
2023-03-07T10:29:59.809Z,11.95
2023-03-07T10:32:35.005Z,12.38
2023-03-07T10:35:24.611Z,10.45
2023-03-07T10:38:00.136Z,11.45
2023-03-07T10:40:36.667Z,10.77
2023-03-07T10:43:06.091Z,11.73
2023-03-07T10:48:08.378Z,10.77
2023-03-07T10:50:51.337Z,10.05
2023-03-07T10:53:32.370Z,12.20
2023-03-07T10:56:17.182Z,11.45
2023-03-07T10:59:09.593Z,10.60
2023-03-07T11:01:54.487Z,10.88
2023-03-07T11:04:30.849Z,11.00
2023-03-07T11:07:01.496Z,11.15
2023-03-07T11:09:29.901Z,11.45
2023-03-07T11:12:20.760Z,12.20
2023-03-07T11:15:07.350Z,10.52
2023-03-07T11:17:46.444Z,10.68
2023-03-07T11:20:46.558Z,11.48
2023-03-07T11:23:20.177Z,11.63
2023-03-07T11:25:46.930Z,11.45
2023-03-07T11:28:35.309Z,10.63
2023-03-07T11:31:39.328Z,12.88
2023-03-07T11:34:31.392Z,11.60
2023-03-07T11:37:17.818Z,11.93
2023-03-07T11:40:12.768Z,11.45
2023-03-07T11:42:50.289Z,11.30
2023-03-07T11:45:28.230Z,10.75
2023-03-07T11:48:11.572Z,11.52
2023-03-07T11:50:41.052Z,11.10
2023-03-07T11:53:41.097Z,11.65
2023-03-07T11:56:26.951Z,10.77
2023-03-07T12:03:01.035Z,10.30
2023-03-07T12:06:00.386Z,10.80
2023-03-07T12:11:41.355Z,10.85
2023-03-07T12:14:14.262Z,10.32
2023-03-07T12:17:12.864Z,10.15
2023-03-07T12:20:03.041Z,10.15
2023-03-07T12:22:39.830Z,9.40
2023-03-07T12:25:12.801Z,9.30
2023-03-07T12:27:50.525Z,9.02
2023-03-07T12:30:58.028Z,9.30
2023-03-07T12:33:36.942Z,9.02
2023-03-07T12:36:11.950Z,8.75
2023-03-07T12:38:48.080Z,9.15
2023-03-07T12:41:23.189Z,9.07
2023-03-07T12:43:58.379Z,6.65
2023-03-07T12:46:40.631Z,8.63
2023-03-07T12:49:30.893Z,9.40
2023-03-07T12:52:06.994Z,8.52
2023-03-07T12:54:40.778Z,8.50
2023-03-07T12:57:17.835Z,8.70
2023-03-07T12:59:50.954Z,8.88
2023-03-07T13:02:27.439Z,8.05
2023-03-07T13:04:54.894Z,8.60
2023-03-07T13:07:30.110Z,8.50
2023-03-07T13:09:59.660Z,9.23
2023-03-07T13:12:32.472Z,8.57
2023-03-07T13:15:44.934Z,8.63
2023-03-07T13:18:30.767Z,8.50
2023-03-07T13:21:08.101Z,8.63
2023-03-07T13:23:35.177Z,8.20
2023-03-07T13:26:05.488Z,9.25
2023-03-07T13:28:38.569Z,10.38
2023-03-07T13:31:19.375Z,10.07
2023-03-07T13:33:48.262Z,9.32
2023-03-07T13:36:35.337Z,9.98
2023-03-07T13:39:03.072Z,9.38
2023-03-07T13:41:50.317Z,9.40
2023-03-07T13:44:32.216Z,9.82
2023-03-07T13:47:05.779Z,10.25
2023-03-07T13:49:40.678Z,11.85
2023-03-07T13:52:33.350Z,10.27
2023-03-07T13:55:01.753Z,10.20
2023-03-07T13:57:35.128Z,10.95
2023-03-07T14:00:15.250Z,11.77
2023-03-07T14:02:43.925Z,12.23
2023-03-07T14:05:11.283Z,10.80
2023-03-07T14:07:41.764Z,10.77
2023-03-07T14:10:22.377Z,10.65
2023-03-07T14:13:21.258Z,11.45
2023-03-07T14:16:20.479Z,10.80
2023-03-07T14:19:19.721Z,11.40
2023-03-07T14:22:15.557Z,12.02
2023-03-07T14:25:11.198Z,11.25
2023-03-07T14:28:18.190Z,11.32
2023-03-07T14:30:59.063Z,11.07
2023-03-07T14:33:36.706Z,12.00
2023-03-07T14:36:15.023Z,12.48
2023-03-07T14:38:45.608Z,12.20
2023-03-07T14:41:23.405Z,12.15
2023-03-07T14:44:10.869Z,12.77
2023-03-07T14:47:08.061Z,12.85
2023-03-07T14:50:00.279Z,13.07
2023-03-07T14:52:31.324Z,12.55
2023-03-07T14:55:04.906Z,12.07
2023-03-07T14:57:38.833Z,11.77
2023-03-07T15:00:20.668Z,11.55
2023-03-07T15:02:49.179Z,11.60
2023-03-07T15:05:24.948Z,11.87
2023-03-07T15:07:52.152Z,11.27
2023-03-07T15:10:40.990Z,10.73
2023-03-07T15:13:37.758Z,11.57
2023-03-07T15:16:11.979Z,11.57
2023-03-07T15:18:42.021Z,11.38
2023-03-07T15:21:17.928Z,12.27
2023-03-07T15:23:51.806Z,11.00
2023-03-07T15:26:21.328Z,12.05
2023-03-07T15:28:48.870Z,11.65
2023-03-07T15:31:16.009Z,10.80
2023-03-07T15:33:42.792Z,12.32
2023-03-07T15:36:12.578Z,11.00
2023-03-07T15:38:41.368Z,10.88
2023-03-07T15:41:27.695Z,11.30
2023-03-07T15:44:17.259Z,10.60
2023-03-07T15:46:56.411Z,11.52
2023-03-07T15:49:43.386Z,12.52
2023-03-07T15:52:37.833Z,10.35
2023-03-07T15:55:16.530Z,10.70
2023-03-07T15:57:52.463Z,9.82
2023-03-07T16:00:32.235Z,8.20
2023-03-07T16:03:31.518Z,6.55
2023-03-07T16:08:26.221Z,6.00
2023-03-07T16:10:55.847Z,5.68
2023-03-07T16:13:25.972Z,4.72
2023-03-07T16:16:13.043Z,4.75
2023-03-07T16:18:41.755Z,5.00
2023-03-07T16:21:12.669Z,4.18
2023-03-07T16:23:39.913Z,2.97
2023-03-07T16:26:07.430Z,3.08
2023-03-07T16:28:34.963Z,3.97
2023-03-07T16:31:01.694Z,2.92
2023-03-07T16:33:28.538Z,2.90
2023-03-07T16:35:55.154Z,4.30
2023-03-07T16:38:21.748Z,3.55
2023-03-07T16:40:48.591Z,3.13
2023-03-07T16:43:36.415Z,4.22
2023-03-07T16:46:06.418Z,4.88
2023-03-07T16:48:33.338Z,5.63
2023-03-07T16:51:00.005Z,4.00
2023-03-07T16:53:26.807Z,3.60
2023-03-07T16:55:55.403Z,3.20
2023-03-07T16:58:24.937Z,3.20
2023-03-07T17:00:52.441Z,3.10
2023-03-07T17:03:19.765Z,3.47
2023-03-07T17:05:46.737Z,3.20
2023-03-07T17:08:13.570Z,3.60
2023-03-07T17:10:40.492Z,3.85
2023-03-07T17:13:17.609Z,3.13
2023-03-07T17:15:45.552Z,3.00
2023-03-07T17:18:13.252Z,3.00
2023-03-07T17:20:40.736Z,4.50
2023-03-07T17:23:07.536Z,3.95
2023-03-07T17:25:35.411Z,3.42
2023-03-07T17:28:10.762Z,3.25
2023-03-07T17:30:37.566Z,4.93
2023-03-07T17:33:04.218Z,5.72
2023-03-07T17:35:31.060Z,6.95
2023-03-07T17:37:57.829Z,5.07
2023-03-07T17:40:24.627Z,7.18
2023-03-07T17:42:51.796Z,5.07
2023-03-07T17:45:18.707Z,4.70
2023-03-07T17:47:49.452Z,4.40
2023-03-07T17:50:16.135Z,4.28
2023-03-07T17:52:43.606Z,5.40
2023-03-07T17:55:10.834Z,5.28
2023-03-07T17:57:37.701Z,5.85
2023-03-07T18:00:14.300Z,7.07
2023-03-07T18:02:44.264Z,6.07
2023-03-07T18:05:13.137Z,5.68
2023-03-07T18:07:42.850Z,4.35
2023-03-07T18:10:10.342Z,5.40
2023-03-07T18:12:39.360Z,6.25
2023-03-07T18:15:19.777Z,5.38
2023-03-07T18:17:48.675Z,6.30
2023-03-07T18:20:17.321Z,5.97
2023-03-07T18:22:43.955Z,4.70
2023-03-07T18:25:13.464Z,4.63
2023-03-07T18:27:40.144Z,4.53
2023-03-07T18:30:07.417Z,5.28
2023-03-07T18:32:34.314Z,5.85
2023-03-07T18:35:01.065Z,4.78
2023-03-07T18:37:28.619Z,5.25
2023-03-07T18:39:55.559Z,4.78
2023-03-07T18:42:22.263Z,5.32
2023-03-07T18:44:48.873Z,6.25
2023-03-07T18:47:15.527Z,7.18
2023-03-07T18:49:42.361Z,5.60
2023-03-07T18:52:09.033Z,6.00
2023-03-07T18:54:35.770Z,6.40
2023-03-07T18:57:02.371Z,5.88
2023-03-07T18:59:29.068Z,6.28
2023-03-07T19:01:55.824Z,6.57
2023-03-07T19:04:22.522Z,5.50
2023-03-07T19:06:49.212Z,6.80
2023-03-07T19:09:18.023Z,5.45
2023-03-07T19:11:45.660Z,6.13
2023-03-07T19:14:12.665Z,6.93
2023-03-07T19:16:39.746Z,7.95
2023-03-07T19:19:06.473Z,6.70
2023-03-07T19:21:33.182Z,7.43
2023-03-07T19:24:01.740Z,5.95
2023-03-07T19:26:28.760Z,5.67
2023-03-07T19:28:56.517Z,5.30
2023-03-07T19:31:29.536Z,5.72
2023-03-07T19:33:57.100Z,5.55
2023-03-07T19:36:29.122Z,6.70
2023-03-07T19:38:59.091Z,7.20
2023-03-07T19:41:27.677Z,11.15
2023-03-07T19:43:56.436Z,6.90
2023-03-07T19:46:23.429Z,6.70
2023-03-07T19:48:50.343Z,6.88
2023-03-07T19:51:21.196Z,6.88
2023-03-07T19:53:48.223Z,6.78
2023-03-07T19:56:19.776Z,6.32
2023-03-07T19:58:46.556Z,6.50
2023-03-07T20:01:16.068Z,6.80
2023-03-07T20:03:42.900Z,6.40
2023-03-07T20:06:15.118Z,6.78
2023-03-07T20:08:41.907Z,6.25
2023-03-07T20:11:15.660Z,6.90
2023-03-07T20:13:43.918Z,6.70
2023-03-07T20:16:10.758Z,6.82
2023-03-07T20:18:38.249Z,5.40
2023-03-07T20:21:13.292Z,6.65
2023-03-07T20:23:43.494Z,6.53
2023-03-07T20:26:16.559Z,5.05
2023-03-07T20:28:43.665Z,6.55
2023-03-07T20:31:10.906Z,6.75
2023-03-07T20:33:39.688Z,5.75
2023-03-07T20:36:09.556Z,6.38
2023-03-07T20:38:37.866Z,4.95
2023-03-07T20:41:06.920Z,4.88
2023-03-07T20:43:34.124Z,4.45
2023-03-07T20:46:12.675Z,3.97
2023-03-07T20:48:40.336Z,3.38
2023-03-07T20:51:18.389Z,3.38
2023-03-07T20:54:05.865Z,3.20
2023-03-07T20:56:34.542Z,3.33
2023-03-07T20:59:02.036Z,2.90
2023-03-07T21:01:31.233Z,2.90
2023-03-07T21:04:10.969Z,2.92
2023-03-07T21:06:39.852Z,3.40
2023-03-07T21:09:10.079Z,2.67
2023-03-07T21:11:38.557Z,3.25
2023-03-07T21:14:05.370Z,3.70
2023-03-07T21:16:32.400Z,3.00
2023-03-07T21:19:01.615Z,2.45
2023-03-07T21:23:58.528Z,2.42
2023-03-07T21:26:28.305Z,2.50
2023-03-07T21:28:56.760Z,3.35
2023-03-07T21:31:29.220Z,2.60
2023-03-07T21:33:58.315Z,2.20
2023-03-07T21:36:31.319Z,1.88
2023-03-07T21:38:59.284Z,1.90
2023-03-07T21:41:26.099Z,1.77
2023-03-07T21:43:54.349Z,2.22
2023-03-07T21:46:21.177Z,2.33
2023-03-07T21:48:47.872Z,2.20
2023-03-07T21:51:14.524Z,2.30
2023-03-07T21:53:41.393Z,2.40
2023-03-07T21:56:13.922Z,2.55
2023-03-07T21:58:40.996Z,2.25
2023-03-07T22:01:13.990Z,2.60
2023-03-07T22:03:41.195Z,2.70
2023-03-07T22:06:10.635Z,2.63
2023-03-07T22:11:06.972Z,2.67
2023-03-07T22:13:35.748Z,2.45
2023-03-07T22:16:05.357Z,2.60
2023-03-07T22:18:33.112Z,2.53
2023-03-07T22:21:05.496Z,2.78
2023-03-07T22:23:32.134Z,2.80
2023-03-07T22:26:06.788Z,2.67
2023-03-07T22:28:34.063Z,3.00
2023-03-07T22:31:06.100Z,3.08
2023-03-07T22:33:33.148Z,3.10
2023-03-07T22:36:04.185Z,3.35
2023-03-07T22:38:30.822Z,3.30
2023-03-07T22:41:12.092Z,3.67
2023-03-07T22:43:39.032Z,3.97
2023-03-07T22:46:06.798Z,3.92
2023-03-07T22:48:34.248Z,4.15
2023-03-07T22:51:01.430Z,4.68
2023-03-07T22:53:30.948Z,3.92
2023-03-07T22:56:01.142Z,3.53
2023-03-07T22:58:30.947Z,4.65
2023-03-07T23:00:57.622Z,4.60
2023-03-07T23:03:24.770Z,5.13
2023-03-07T23:05:51.454Z,5.30
2023-03-07T23:08:20.917Z,4.10
2023-03-07T23:10:47.691Z,5.20
2023-03-07T23:13:16.124Z,4.55
2023-03-07T23:18:10.266Z,4.22
2023-03-07T23:20:38.919Z,4.45
2023-03-07T23:23:05.717Z,5.18
2023-03-07T23:25:33.217Z,4.53
2023-03-07T23:28:00.108Z,4.40
2023-03-07T23:30:26.812Z,4.18
2023-03-07T23:32:54.769Z,4.90
2023-03-07T23:35:21.349Z,5.20
2023-03-07T23:37:48.433Z,4.32
2023-03-07T23:40:15.158Z,3.90
2023-03-07T23:42:43.399Z,4.28
2023-03-07T23:45:10.488Z,5.40
2023-03-07T23:47:37.216Z,4.32
2023-03-07T23:50:04.177Z,5.40
2023-03-07T23:52:30.808Z,6.40
2023-03-07T23:54:57.448Z,6.15
2023-03-07T23:57:24.178Z,5.00
2023-03-07T23:59:51.036Z,5.38
